Time;durP1;ratioP1;P1;durP2;ratioP2;P2;SDS_P1;SDS_P2;PMS_P1;PMS_P2;Temp;Humidity;BMP_temperature;BMP_pressure;BME280_temperature;BME280_humidity;BME280_pressure;Samples;Min_cycle;Max_cycle;Signal;HPM_P1;HPM_P2
2021/10/30 00:00:32;;;;;;;14.40;11.37;;;8.20;97.90;;;7.88;88.66;97641.69;5068501;28;21074;-84
2021/10/30 00:03:01;;;;;;;13.37;10.73;;;8.20;97.80;;;7.85;86.94;97638.44;5065412;28;20631;-84
2021/10/30 00:05:32;;;;;;;13.77;10.77;;;8.20;97.70;;;7.83;87.04;97643.75;5043917;28;20641;-83
2021/10/30 00:08:00;;;;;;;15.47;12.10;;;8.20;97.70;;;7.82;87.64;97651.63;5078293;28;20675;-84
2021/10/30 00:10:30;;;;;;;14.63;11.03;;;8.20;98.00;;;7.77;88.77;97645.91;5067541;28;20656;-84
2021/10/30 00:12:59;;;;;;;18.73;11.90;;;8.10;97.90;;;7.74;87.75;97643.50;5065439;28;20728;-84
2021/10/30 00:15:28;;;;;;;15.20;11.20;;;8.10;97.80;;;7.70;87.17;97648.06;5063441;28;21160;-84
2021/10/30 00:17:57;;;;;;;13.83;11.30;;;8.10;97.80;;;7.69;87.58;97637.78;5067548;28;20629;-84
2021/10/30 00:20:26;;;;;;;14.30;10.87;;;8.00;97.80;;;7.67;88.30;97637.88;5077823;28;20631;-84
2021/10/30 00:22:56;;;;;;;16.97;11.20;;;8.00;97.80;;;7.64;88.76;97629.47;5070677;28;20635;-84
2021/10/30 00:25:25;;;;;;;13.57;10.70;;;8.00;97.80;;;7.62;88.92;97623.53;5063418;28;20631;-84
2021/10/30 00:27:53;;;;;;;15.37;11.70;;;8.00;97.80;;;7.60;87.75;97617.63;5047691;28;20631;-84
2021/10/30 00:30:22;;;;;;;15.07;10.40;;;8.00;97.90;;;7.58;87.55;97624.69;5071205;28;20648;-84
2021/10/30 00:32:50;;;;;;;14.73;10.77;;;7.90;97.90;;;7.61;89.09;97624.47;5061401;28;20646;-84
2021/10/30 00:35:19;;;;;;;13.03;10.20;;;8.00;98.10;;;7.55;88.84;97615.31;5063093;28;21184;-84
2021/10/30 00:37:47;;;;;;;15.80;10.23;;;7.90;97.90;;;7.55;87.65;97614.50;5052281;28;20632;-84
2021/10/30 00:40:18;;;;;;;12.97;10.10;;;7.90;97.80;;;7.51;87.03;97610.41;5063627;28;20971;-84
2021/10/30 00:42:46;;;;;;;14.33;10.63;;;7.90;97.70;;;7.48;88.02;97615.81;5066311;28;21112;-84
2021/10/30 00:45:15;;;;;;;13.83;10.70;;;7.90;97.60;;;7.44;87.86;97614.31;5063088;28;20629;-84
2021/10/30 00:47:43;;;;;;;13.70;10.60;;;7.80;97.60;;;7.41;86.86;97614.53;5076950;28;20651;-84
2021/10/30 00:50:12;;;;;;;14.77;10.73;;;7.80;97.60;;;7.40;87.67;97615.47;5045072;28;20676;-84
2021/10/30 00:52:42;;;;;;;14.37;10.80;;;7.70;97.60;;;7.37;87.28;97613.06;5064552;28;20640;-84
2021/10/30 00:55:11;;;;;;;13.83;10.13;;;7.70;97.80;;;7.35;88.67;97614.94;5045256;28;20655;-84
2021/10/30 00:57:43;;;;;;;12.43;9.53;;;7.70;97.90;;;7.33;87.98;97611.59;5055079;28;20616;-84
2021/10/30 01:00:13;;;;;;;11.17;9.97;;;7.70;97.90;;;7.32;87.34;97612.53;5067071;28;20638;-83
2021/10/30 01:02:42;;;;;;;13.63;10.40;;;7.70;97.80;;;7.29;88.68;97610.13;5066970;28;21222;-84
2021/10/30 01:05:11;;;;;;;14.27;10.20;;;7.60;97.90;;;7.26;88.18;97610.34;5079621;28;20639;-84
2021/10/30 01:07:39;;;;;;;12.67;10.27;;;7.60;97.70;;;7.23;87.54;97610.53;5055060;28;20650;-84
2021/10/30 01:10:09;;;;;;;15.10;11.03;;;7.60;97.60;;;7.23;87.26;97605.34;5065094;28;20632;-84
2021/10/30 01:12:37;;;;;;;13.40;10.17;;;7.60;97.70;;;7.22;88.49;97602.84;5045362;28;21019;-83
2021/10/30 01:15:08;;;;;;;12.60;10.50;;;7.60;97.80;;;7.21;88.68;97601.97;5063481;28;20643;-84
2021/10/30 01:17:37;;;;;;;12.50;10.47;;;7.60;97.80;;;7.22;87.70;97595.06;5062030;28;20631;-84
2021/10/30 01:20:09;;;;;;;13.30;10.30;;;7.60;98.00;;;7.16;88.39;97588.50;5062866;28;20761;-84
2021/10/30 01:22:37;;;;;;;12.73;10.50;;;7.50;97.90;;;7.14;87.68;97586.91;5056944;28;21210;-84
2021/10/30 01:25:08;;;;;;;12.80;10.13;;;7.50;97.80;;;7.10;87.28;97575.91;5068039;28;21078;-84
2021/10/30 01:27:37;;;;;;;14.90;10.50;;;7.50;97.60;;;7.07;87.90;97583.06;5060401;28;20639;-84
2021/10/30 01:30:07;;;;;;;13.87;9.80;;;7.40;97.40;;;7.05;88.11;97570.19;5062411;28;20629;-84
2021/10/30 01:32:37;;;;;;;17.50;9.83;;;7.40;97.50;;;7.01;88.27;97561.88;5066848;28;20660;-84
2021/10/30 01:35:07;;;;;;;14.07;10.30;;;7.40;97.60;;;7.02;87.58;97568.72;5063505;28;20644;-84
2021/10/30 01:37:36;;;;;;;14.77;10.67;;;7.40;97.70;;;7.00;88.54;97573.16;5055540;28;20694;-84
2021/10/30 01:40:07;;;;;;;13.10;9.67;;;7.40;97.80;;;6.99;88.38;97563.72;5063340;28;20723;-84
2021/10/30 01:42:35;;;;;;;13.03;10.10;;;7.30;97.60;;;6.92;87.44;97555.50;5044940;28;21113;-84
2021/10/30 01:45:05;;;;;;;12.40;10.00;;;7.30;97.40;;;6.90;87.88;97551.34;5063933;28;20628;-84
2021/10/30 01:47:34;;;;;;;13.00;9.63;;;7.20;97.30;;;6.86;87.60;97549.88;5062638;28;20640;-84
2021/10/30 01:50:02;;;;;;;12.53;9.70;;;7.20;97.30;;;6.83;87.97;97540.53;5061065;28;21164;-84
2021/10/30 01:52:34;;;;;;;13.07;10.73;;;7.20;97.40;;;6.82;88.02;97538.03;5047631;28;20648;-84
2021/10/30 01:55:02;;;;;;;13.93;10.30;;;7.20;97.80;;;6.80;88.21;97548.50;5048217;28;20622;-84
2021/10/30 01:57:31;;;;;;;12.33;9.90;;;7.10;97.80;;;6.77;88.48;97545.28;5061407;28;20735;-83
2021/10/30 01:59:59;;;;;;;13.20;9.80;;;7.10;97.70;;;6.75;88.26;97540.19;5062972;28;20642;-83
2021/10/30 02:02:28;;;;;;;15.70;9.80;;;7.10;97.60;;;6.75;87.76;97539.31;5062092;28;20632;-83
2021/10/30 02:04:57;;;;;;;15.07;9.93;;;7.20;97.50;;;6.69;87.25;97535.38;5061397;28;20636;-83
2021/10/30 02:07:25;;;;;;;17.40;10.83;;;7.10;97.20;;;6.67;87.23;97528.63;5059765;28;21226;-83
2021/10/30 02:09:55;;;;;;;15.67;10.10;;;7.10;97.30;;;6.65;87.05;97522.72;5066525;28;20691;-83
2021/10/30 02:12:25;;;;;;;11.90;8.80;;;7.00;97.30;;;6.63;87.60;97529.72;5060619;28;20656;-84
2021/10/30 02:14:54;;;;;;;14.50;10.20;;;7.00;97.30;;;6.64;87.30;97536.56;5079872;28;20632;-84
2021/10/30 02:17:23;;;;;;;11.43;9.27;;;7.00;97.20;;;6.59;87.40;97523.91;5057637;28;20632;-83
2021/10/30 02:19:51;;;;;;;12.43;9.70;;;7.00;97.40;;;6.61;87.95;97521.22;5061612;28;20631;-83
2021/10/30 02:22:20;;;;;;;11.83;9.13;;;7.00;97.60;;;6.58;87.59;97521.41;5063454;28;20651;-83
2021/10/30 02:24:49;;;;;;;12.37;9.70;;;7.00;97.60;;;6.56;87.76;97523.28;5050488;28;20617;-84
2021/10/30 02:27:19;;;;;;;15.87;10.20;;;6.90;97.60;;;6.55;87.73;97510.41;5061237;28;20624;-83
2021/10/30 02:29:47;;;;;;;12.00;9.20;;;6.90;97.50;;;6.53;87.59;97512.28;5065497;28;20628;-83
2021/10/30 02:32:16;;;;;;;13.97;9.50;;;6.90;97.40;;;6.46;86.93;97516.97;5063602;28;20767;-84
2021/10/30 02:34:45;;;;;;;13.23;9.83;;;6.90;96.90;;;6.43;86.54;97506.81;5073738;28;20668;-84
2021/10/30 02:37:14;;;;;;;10.97;9.10;;;6.90;96.90;;;6.42;87.43;97507.75;5065209;28;20642;-84
2021/10/30 02:39:42;;;;;;;11.27;9.30;;;6.80;97.10;;;6.41;87.39;97500.09;5063818;28;20645;-83
2021/10/30 02:42:11;;;;;;;12.50;9.50;;;6.80;97.10;;;6.41;87.26;97503.50;5065699;28;20639;-83
2021/10/30 02:44:41;;;;;;;12.40;9.20;;;6.80;97.60;;;6.40;87.39;97495.81;5062590;28;20631;-83
2021/10/30 02:47:10;;;;;;;12.37;9.73;;;6.80;97.30;;;6.37;87.53;97488.25;5078257;28;21179;-83
2021/10/30 02:49:39;;;;;;;13.87;9.50;;;6.80;97.30;;;6.34;87.53;97491.84;5054845;28;20637;-83
2021/10/30 02:52:08;;;;;;;9.80;8.43;;;6.70;97.30;;;6.31;87.12;97481.66;5062656;28;20658;-83
2021/10/30 02:54:37;;;;;;;13.60;9.17;;;6.70;97.20;;;6.30;87.77;97481.75;5064294;28;20651;-83
2021/10/30 02:57:06;;;;;;;11.83;9.30;;;6.70;97.30;;;6.31;87.76;97476.50;5044864;28;20635;-84
2021/10/30 02:59:35;;;;;;;12.17;9.60;;;6.70;97.80;;;6.29;88.18;97464.59;5076016;28;20624;-84
2021/10/30 03:02:06;;;;;;;13.07;9.40;;;6.70;97.70;;;6.28;88.19;97457.72;5063746;28;20729;-84
2021/10/30 03:04:34;;;;;;;12.50;9.37;;;6.70;98.10;;;6.28;88.03;97468.91;5048718;28;21012;-84
2021/10/30 03:07:03;;;;;;;12.63;9.23;;;6.60;97.50;;;6.25;87.22;97456.16;5058987;28;21239;-83
2021/10/30 03:09:32;;;;;;;13.20;9.27;;;6.60;97.40;;;6.22;87.02;97458.09;5061804;28;20651;-83
2021/10/30 03:12:00;;;;;;;14.27;9.90;;;6.60;97.10;;;6.22;88.04;97447.75;5074068;28;20674;-83
2021/10/30 03:14:29;;;;;;;10.43;8.20;;;6.60;97.40;;;6.22;87.46;97440.00;5057538;28;20650;-83
2021/10/30 03:16:57;;;;;;;12.73;9.37;;;6.60;97.50;;;6.21;87.91;97436.56;5061638;28;20640;-83
2021/10/30 03:19:27;;;;;;;14.63;9.20;;;6.60;97.50;;;6.20;87.40;97431.50;5062289;28;21084;-83
2021/10/30 03:21:56;;;;;;;15.10;9.67;;;6.60;97.40;;;6.19;87.52;97433.25;5055992;28;20629;-84
2021/10/30 03:24:24;;;;;;;12.53;10.07;;;6.60;97.30;;;6.17;87.53;97432.50;5060664;28;20723;-83
2021/10/30 03:26:53;;;;;;;12.00;8.80;;;6.60;97.50;;;6.16;87.47;97424.84;5062694;28;20624;-83
2021/10/30 03:29:22;;;;;;;11.53;9.20;;;6.50;97.30;;;6.14;87.58;97427.50;5062217;28;20635;-83
2021/10/30 03:31:50;;;;;;;11.27;8.50;;;6.60;97.30;;;6.14;87.48;97424.09;5064803;28;20659;-84
2021/10/30 03:34:19;;;;;;;10.73;8.67;;;6.50;97.30;;;6.09;86.94;97424.38;5062265;28;20663;-84
2021/10/30 03:36:49;;;;;;;12.07;8.83;;;6.50;97.00;;;6.04;87.43;97419.59;5056809;28;20624;-84
2021/10/30 03:39:17;;;;;;;11.30;8.70;;;6.50;97.10;;;6.04;87.23;97420.41;5049265;28;20662;-84
2021/10/30 03:41:46;;;;;;;13.33;9.50;;;6.40;97.10;;;6.09;87.23;97418.41;5047077;28;21215;-84
2021/10/30 03:44:15;;;;;;;11.77;8.50;;;6.50;97.10;;;6.05;87.67;97414.31;5057879;28;20651;-84
2021/10/30 03:46:43;;;;;;;12.57;9.70;;;6.40;97.30;;;6.05;87.80;97422.09;5062852;28;21201;-84
2021/10/30 03:49:12;;;;;;;11.70;9.00;;;6.40;97.40;;;6.04;87.67;97420.41;5067736;28;20639;-84
2021/10/30 03:51:44;;;;;;;12.27;9.40;;;6.40;97.40;;;6.04;87.39;97432.53;5060421;28;20647;-84
2021/10/30 03:54:14;;;;;;;11.33;8.87;;;6.40;97.20;;;6.05;87.64;97426.44;5050450;28;20643;-84
2021/10/30 03:56:43;;;;;;;10.80;8.03;;;6.40;97.20;;;6.01;87.01;97435.31;5061681;28;20632;-84
2021/10/30 03:59:12;;;;;;;11.17;8.73;;;6.40;97.20;;;5.97;86.91;97439.84;5058087;28;20633;-84
2021/10/30 04:01:40;;;;;;;13.00;9.33;;;6.30;96.90;;;5.99;86.99;97447.50;5046464;28;20635;-84
2021/10/30 04:04:09;;;;;;;11.40;9.60;;;6.40;97.10;;;5.99;87.72;97445.75;5065600;28;20620;-84
2021/10/30 04:06:38;;;;;;;11.70;9.40;;;6.40;97.30;;;5.97;87.65;97437.25;5058460;28;20653;-84
2021/10/30 04:09:06;;;;;;;11.07;8.63;;;6.40;97.40;;;5.95;87.87;97431.31;5064300;28;20657;-84
2021/10/30 04:11:36;;;;;;;11.53;8.30;;;6.30;97.50;;;5.92;87.48;97430.69;5062017;28;20656;-84
2021/10/30 04:14:05;;;;;;;11.57;8.83;;;6.30;97.30;;;5.87;87.46;97428.38;5064355;28;20680;-84
2021/10/30 04:16:35;;;;;;;12.30;9.30;;;6.30;97.30;;;5.82;87.93;97424.41;5082662;28;20628;-84
2021/10/30 04:19:04;;;;;;;11.80;9.13;;;6.20;97.30;;;5.79;87.63;97414.25;5066926;28;20620;-84
2021/10/30 04:21:32;;;;;;;14.57;10.87;;;6.10;97.40;;;5.73;88.05;97414.59;5062224;28;20628;-84
2021/10/30 04:24:01;;;;;;;18.13;10.07;;;6.10;97.50;;;5.75;88.41;97416.19;5063738;28;20637;-84
2021/10/30 04:26:30;;;;;;;14.13;9.60;;;6.10;97.80;;;5.74;88.57;97409.38;5062889;28;20627;-84
2021/10/30 04:29:00;;;;;;;11.70;9.17;;;6.10;97.70;;;5.78;88.30;97402.25;5065165;28;20627;-84
2021/10/30 04:31:30;;;;;;;13.50;9.43;;;6.20;97.80;;;5.76;88.22;97393.75;5059625;28;21228;-84
2021/10/30 04:34:01;;;;;;;14.20;9.27;;;6.10;97.90;;;5.70;87.89;97383.75;5061020;28;23802;-84
2021/10/30 04:36:32;;;;;;;11.17;8.50;;;6.10;97.50;;;5.68;87.95;97362.28;5067985;28;21486;-84
2021/10/30 04:39:01;;;;;;;14.13;9.10;;;6.10;97.50;;;5.66;87.45;97362.38;5065465;28;20624;-84
2021/10/30 04:41:32;;;;;;;19.50;9.50;;;6.10;97.40;;;5.65;87.60;97354.72;5050871;28;20632;-84
2021/10/30 04:44:02;;;;;;;11.53;8.60;;;6.10;97.50;;;5.68;87.33;97349.34;5067134;28;20620;-84
2021/10/30 04:46:31;;;;;;;13.40;9.40;;;6.10;97.50;;;5.71;88.02;97342.25;5065209;28;21179;-84
2021/10/30 04:49:00;;;;;;;13.93;9.50;;;6.10;97.70;;;5.72;88.57;97330.16;5065734;28;20630;-84
2021/10/30 04:51:28;;;;;;;12.80;10.00;;;6.10;97.80;;;5.74;88.52;97329.19;5066683;28;21205;-84
2021/10/30 04:53:57;;;;;;;11.90;8.60;;;6.10;98.00;;;5.78;89.27;97322.88;5067337;28;21170;-84
2021/10/30 04:56:25;;;;;;;12.33;8.93;;;6.20;98.50;;;5.78;88.62;97306.53;5068213;28;20646;-84
2021/10/30 04:58:54;;;;;;;13.00;9.73;;;6.20;98.10;;;5.78;89.00;97309.13;5064172;28;20634;-82
2021/10/30 05:01:24;;;;;;;13.93;9.63;;;6.20;98.00;;;5.78;88.69;97307.34;5070022;28;20631;-84
2021/10/30 05:03:53;;;;;;;11.17;9.20;;;6.20;98.10;;;5.77;89.11;97307.44;5065525;28;20669;-85
2021/10/30 05:06:21;;;;;;;13.43;9.60;;;6.20;98.20;;;5.76;88.14;97308.41;5061947;28;20670;-84
2021/10/30 05:08:50;;;;;;;10.50;8.53;;;6.10;97.90;;;5.70;87.58;97303.56;5060954;28;20652;-84
2021/10/30 05:11:19;;;;;;;12.97;9.40;;;6.10;97.20;;;5.71;87.84;97307.78;5064533;28;20651;-84
2021/10/30 05:13:47;;;;;;;11.83;9.40;;;6.20;97.70;;;5.74;88.89;97302.47;5050052;28;20755;-87
2021/10/30 05:16:16;;;;;;;11.57;9.07;;;6.10;97.90;;;5.77;88.64;97300.53;5060457;28;20623;-86
2021/10/30 05:18:46;;;;;;;13.30;9.30;;;6.20;98.10;;;5.79;88.71;97301.25;5069869;28;20755;-87
2021/10/30 05:21:15;;;;;;;12.03;9.77;;;6.20;98.60;;;5.80;88.90;97304.66;5075125;28;21374;-85
2021/10/30 05:23:44;;;;;;;15.87;9.43;;;6.20;98.30;;;5.78;88.40;97304.75;5065701;28;20660;-85
2021/10/30 05:26:12;;;;;;;10.70;8.90;;;6.20;98.00;;;5.78;88.50;97303.94;5064642;28;20635;-84
2021/10/30 05:28:41;;;;;;;12.67;8.60;;;6.20;97.90;;;5.77;88.02;97294.50;5060460;28;21041;-84
2021/10/30 05:31:10;;;;;;;12.27;9.20;;;6.20;97.80;;;5.76;88.55;97300.63;5063620;28;20628;-84
2021/10/30 05:33:39;;;;;;;11.40;8.40;;;6.20;97.90;;;5.80;87.99;97289.16;5066861;28;20684;-84
2021/10/30 05:36:30;;;;;;;11.20;8.50;;;6.20;98.00;;;5.81;89.07;97296.00;5063746;28;20643;-85
2021/10/30 05:39:12;;;;;;;12.47;8.60;;;6.20;98.30;;;5.82;88.17;97290.72;5064426;28;20627;-84
2021/10/30 05:41:41;;;;;;;13.77;8.70;;;6.20;98.60;;;5.83;89.09;97295.00;5061091;28;20642;-84
2021/10/30 05:44:11;;;;;;;14.63;9.30;;;6.20;98.50;;;5.89;89.16;97288.56;5063239;28;20678;-84
2021/10/30 05:46:41;;;;;;;11.30;8.70;;;6.20;98.50;;;5.94;88.93;97289.97;5061587;28;20640;-84
2021/10/30 05:49:11;;;;;;;13.10;9.30;;;6.30;98.40;;;5.99;88.73;97297.44;5069205;28;20628;-84
2021/10/30 05:51:41;;;;;;;12.43;8.43;;;6.30;98.30;;;6.01;88.99;97300.75;5065867;28;20627;-85
2021/10/30 05:54:09;;;;;;;11.80;9.00;;;6.40;98.40;;;6.05;88.42;97304.81;5063113;28;20651;-84
2021/10/30 05:56:38;;;;;;;10.47;8.40;;;6.40;98.30;;;6.08;88.50;97307.22;5076906;28;20644;-84
2021/10/30 05:59:07;;;;;;;11.53;8.37;;;6.40;98.20;;;6.07;88.14;97310.72;5065995;28;20632;-84
2021/10/30 06:01:35;;;;;;;11.03;8.40;;;6.40;98.00;;;6.02;88.00;97308.41;5061764;28;20639;-84
2021/10/30 06:04:05;;;;;;;13.27;8.67;;;6.40;97.80;;;6.01;87.93;97321.44;5062428;28;20632;-84
2021/10/30 06:06:33;;;;;;;10.73;8.23;;;6.40;97.80;;;5.99;87.37;97318.13;5058331;28;20648;-84
2021/10/30 06:09:04;;;;;;;11.20;8.50;;;6.40;97.50;;;5.97;87.20;97322.56;5046233;28;21020;-85
2021/10/30 06:11:33;;;;;;;12.23;9.10;;;6.40;97.30;;;5.82;85.37;97331.28;5064738;28;20638;-85
2021/10/30 06:14:03;;;;;;;16.50;10.87;;;6.20;96.10;;;5.67;85.21;97327.84;5060294;28;20645;-85
2021/10/30 06:16:31;;;;;;;13.30;10.63;;;6.10;95.70;;;5.57;85.37;97328.50;5065742;28;20670;-84
2021/10/30 06:19:00;;;;;;;13.03;9.70;;;6.00;95.80;;;5.51;85.56;97336.63;5063096;28;21245;-84
2021/10/30 06:21:29;;;;;;;38.70;11.43;;;5.90;96.00;;;5.44;86.62;97330.19;5064501;28;20631;-85
2021/10/30 06:23:59;;;;;;;14.93;10.07;;;5.90;96.40;;;5.48;86.27;97315.31;5060556;28;20632;-84
2021/10/30 06:26:29;;;;;;;11.03;8.13;;;5.90;96.80;;;5.59;87.06;97293.03;5062529;28;20719;-84
2021/10/30 06:28:59;;;;;;;11.03;9.00;;;6.00;97.00;;;5.76;86.83;97285.94;5058074;28;20679;-84
2021/10/30 06:31:27;;;;;;;12.63;8.90;;;6.10;97.50;;;5.97;86.75;97278.56;5061482;28;20663;-84
2021/10/30 06:33:56;;;;;;;14.80;9.67;;;6.20;97.50;;;6.15;87.49;97275.66;5059952;28;20659;-84
2021/10/30 06:36:25;;;;;;;11.77;8.70;;;6.40;97.80;;;6.37;87.54;97265.56;5065055;28;21201;-86
2021/10/30 06:38:57;;;;;;;9.50;7.47;;;6.60;98.00;;;6.55;87.06;97254.00;5063222;28;21051;-86
2021/10/30 06:41:47;;;;;;;12.43;8.57;;;6.80;97.90;;;6.76;86.58;97256.00;5063605;28;20679;-87
2021/10/30 06:44:18;;;;;;;11.40;8.13;;;7.00;97.90;;;6.90;85.92;97245.53;5059456;28;21065;-87
2021/10/30 06:46:50;;;;;;;14.60;9.50;;;7.10;97.70;;;7.04;86.40;97259.25;5063657;28;20633;-87
2021/10/30 06:49:19;;;;;;;11.53;8.50;;;7.20;97.80;;;7.03;84.27;97235.06;5060798;28;20639;-87
2021/10/30 06:51:48;;;;;;;11.43;8.60;;;7.30;96.60;;;6.93;85.13;97224.59;5061617;28;20708;-87
2021/10/30 06:54:17;;;;;;;9.47;7.70;;;7.20;96.30;;;6.88;85.62;97221.50;5063610;28;20659;-87
2021/10/30 06:56:48;;;;;;;11.60;9.17;;;7.10;96.40;;;6.92;85.75;97210.00;5044594;28;20625;-85
2021/10/30 06:59:16;;;;;;;11.87;9.50;;;7.10;96.70;;;7.01;85.27;97205.03;5066868;28;20620;-85
2021/10/30 07:01:45;;;;;;;12.57;9.60;;;7.20;96.90;;;7.23;86.25;97212.97;5080304;28;20620;-85
2021/10/30 07:04:14;;;;;;;13.13;8.90;;;7.40;97.40;;;7.48;85.84;97213.75;5048577;28;20716;-84
2021/10/30 07:06:42;;;;;;;16.47;10.90;;;7.60;97.50;;;7.62;84.70;97208.41;5053574;28;20666;-85
2021/10/30 07:09:11;;;;;;;15.17;11.13;;;7.80;97.00;;;7.81;84.97;97212.19;5061079;28;20702;-85
2021/10/30 07:11:44;;;;;;;15.10;12.10;;;7.90;96.80;;;7.96;83.77;97202.47;5074327;28;20639;-87
2021/10/30 07:14:14;;;;;;;17.20;12.60;;;8.10;96.80;;;8.09;83.96;97201.47;5064410;28;20666;-86
2021/10/30 07:16:42;;;;;;;13.63;10.70;;;8.20;96.40;;;8.23;85.00;97214.31;5066126;28;20719;-86
2021/10/30 07:19:11;;;;;;;11.43;9.43;;;8.40;96.50;;;8.38;84.49;97215.78;5063072;28;21132;-86
2021/10/30 07:21:40;;;;;;;11.33;9.17;;;8.50;96.50;;;8.51;83.38;97217.38;5063888;28;20643;-86
2021/10/30 07:24:09;;;;;;;11.17;9.07;;;8.70;96.20;;;8.75;83.18;97224.16;5076375;28;20622;-86
2021/10/30 07:26:38;;;;;;;12.07;9.27;;;8.90;96.60;;;8.96;83.39;97220.78;5058518;28;20646;-87
2021/10/30 07:29:07;;;;;;;10.67;9.17;;;9.10;96.20;;;9.05;82.30;97220.06;5064223;28;20623;-86
2021/10/30 07:31:37;;;;;;;9.93;8.93;;;9.20;95.70;;;9.10;82.12;97228.34;5047282;28;20725;-87
2021/10/30 07:34:05;;;;;;;12.80;9.37;;;9.20;95.60;;;9.31;82.79;97231.91;5045351;28;21009;-86
2021/10/30 07:36:34;;;;;;;10.07;8.50;;;9.40;95.90;;;9.52;83.38;97233.66;5042817;28;20990;-86
2021/10/30 07:39:03;;;;;;;11.20;8.83;;;9.60;96.00;;;9.74;82.08;97245.84;5060611;28;20647;-85
2021/10/30 07:41:32;;;;;;;21.00;16.10;;;9.80;95.70;;;9.88;82.14;97249.03;5062322;28;20662;-85
2021/10/30 07:44:00;;;;;;;11.73;9.30;;;9.90;95.40;;;9.99;82.30;97252.44;5058226;28;20633;-86
2021/10/30 07:46:30;;;;;;;12.43;9.20;;;10.10;95.10;;;10.14;80.87;97255.63;5062135;28;20654;-86
2021/10/30 07:49:00;;;;;;;10.37;8.60;;;10.20;94.40;;;10.16;79.35;97249.31;5049109;28;20635;-86
2021/10/30 07:51:30;;;;;;;15.60;12.50;;;10.20;93.40;;;10.15;79.54;97250.28;5069156;28;21193;-88
2021/10/30 07:53:59;;;;;;;12.93;10.80;;;10.20;93.40;;;10.10;79.35;97255.03;5066583;28;20665;-87
2021/10/30 07:56:28;;;;;;;12.93;9.60;;;10.30;93.20;;;10.06;81.24;97247.59;5084332;28;20719;-87
2021/10/30 07:58:57;;;;;;;11.73;8.53;;;10.20;94.30;;;10.10;81.33;97255.03;5050920;28;20620;-88
2021/10/30 08:01:26;;;;;;;12.87;9.53;;;10.20;94.30;;;10.14;81.14;97253.00;5049664;28;20630;-86
2021/10/30 08:03:55;;;;;;;12.00;9.57;;;10.30;93.90;;;10.18;80.78;97252.66;5065251;28;20699;-86
2021/10/30 08:06:25;;;;;;;13.80;10.90;;;10.30;94.00;;;10.22;80.86;97259.25;5063645;28;20639;-85
2021/10/30 08:08:53;;;;;;;11.77;10.10;;;10.40;94.00;;;10.19;80.42;97254.28;5063986;28;20648;-86
2021/10/30 08:11:22;;;;;;;13.60;11.70;;;10.40;93.60;;;10.12;80.21;97240.09;5064942;28;20638;-85
2021/10/30 08:13:51;;;;;;;13.80;10.67;;;10.30;93.10;;;10.10;81.80;97242.03;5065305;28;20654;-87
2021/10/30 08:16:20;;;;;;;15.20;11.80;;;10.30;93.80;;;10.12;80.84;97216.66;5063972;28;20762;-86
2021/10/30 08:18:49;;;;;;;15.53;11.93;;;10.30;93.50;;;10.08;80.44;97217.84;5064282;28;20646;-87
2021/10/30 08:21:19;;;;;;;13.90;12.37;;;10.30;93.30;;;10.12;81.15;97208.84;5080460;28;20663;-86
2021/10/30 08:23:49;;;;;;;15.50;11.63;;;10.30;93.60;;;10.14;81.33;97206.94;5046753;28;20683;-87
2021/10/30 08:26:22;;;;;;;14.43;10.80;;;10.30;93.70;;;10.18;81.49;97202.28;5050868;28;20647;-85
2021/10/30 08:28:51;;;;;;;14.40;11.20;;;10.40;94.10;;;10.21;81.47;97200.28;5043878;28;21202;-83
2021/10/30 08:31:20;;;;;;;15.60;10.87;;;10.40;94.10;;;10.32;83.29;97205.44;5066239;28;20639;-82
2021/10/30 08:33:49;;;;;;;16.77;11.77;;;10.50;94.90;;;10.48;83.77;97209.28;5062512;28;20663;-83
2021/10/30 08:36:17;;;;;;;17.97;13.10;;;10.60;95.40;;;10.71;83.83;97218.66;5063263;28;20663;-83
2021/10/30 08:38:47;;;;;;;14.20;12.00;;;10.80;96.00;;;10.94;83.99;97215.75;5064874;28;20635;-83
2021/10/30 08:41:16;;;;;;;14.33;11.00;;;11.00;95.70;;;11.09;82.65;97211.88;5038210;28;20718;-83
2021/10/30 08:43:45;;;;;;;13.00;10.63;;;11.20;95.30;;;11.24;82.50;97213.19;5043494;28;20644;-83
2021/10/30 08:46:16;;;;;;;16.77;10.57;;;11.30;95.40;;;11.27;81.87;97215.53;5066955;28;20670;-83
2021/10/30 08:48:47;;;;;;;12.27;10.87;;;11.30;94.70;;;11.24;81.57;97210.56;5061694;28;20643;-83
2021/10/30 08:51:16;;;;;;;12.70;10.00;;;11.40;94.40;;;11.19;80.48;97202.31;5053061;28;20995;-83
2021/10/30 08:53:44;;;;;;;12.60;11.13;;;11.40;94.10;;;11.19;81.09;97202.31;5082820;28;20631;-83
2021/10/30 08:56:14;;;;;;;13.73;11.40;;;11.40;94.20;;;11.23;81.00;97203.72;5049586;28;20654;-83
2021/10/30 08:58:43;;;;;;;14.20;12.10;;;11.40;94.60;;;11.27;81.56;97200.72;5067543;28;20732;-83
2021/10/30 09:01:12;;;;;;;17.83;13.80;;;11.40;94.70;;;11.32;80.66;97214.19;5063031;28;21210;-82
2021/10/30 09:03:43;;;;;;;13.90;12.20;;;11.50;94.50;;;11.35;83.17;97203.50;5069546;28;20635;-83
2021/10/30 09:06:12;;;;;;;13.10;11.23;;;11.50;94.80;;;11.41;84.21;97215.19;5046835;28;20649;-83
2021/10/30 09:08:40;;;;;;;12.33;10.53;;;11.60;95.30;;;11.45;81.71;97206.13;5066196;28;20664;-83
2021/10/30 09:11:11;;;;;;;14.00;11.07;;;11.60;94.90;;;11.45;82.37;97195.69;5064167;28;20674;-83
2021/10/30 09:13:41;;;;;;;13.17;10.97;;;11.60;94.50;;;11.45;82.22;97193.09;5065360;28;20709;-83
2021/10/30 09:16:14;;;;;;;14.13;10.47;;;11.60;94.20;;;11.48;81.52;97193.66;5046251;28;21241;-83
2021/10/30 09:18:42;;;;;;;13.93;11.40;;;11.70;94.60;;;11.55;83.86;97183.53;5061508;28;20735;-83
2021/10/30 09:21:14;;;;;;;17.90;13.20;;;11.70;95.10;;;11.67;82.80;97179.88;5066814;28;20631;-83
2021/10/30 09:23:47;;;;;;;15.30;12.97;;;11.80;94.90;;;11.83;80.97;97175.75;5047346;28;20684;-83
2021/10/30 09:26:22;;;;;;;14.80;12.73;;;11.90;94.90;;;12.07;80.67;97177.06;5077426;28;20608;-83
2021/10/30 09:28:57;;;;;;;16.90;13.20;;;12.10;94.70;;;12.13;80.52;97179.09;5067533;28;20627;-83
2021/10/30 09:31:27;;;;;;;14.93;11.90;;;12.20;94.10;;;12.17;79.90;97174.44;5062613;28;20994;-83
2021/10/30 09:33:58;;;;;;;14.37;12.00;;;12.20;94.10;;;12.23;81.91;97171.28;5050616;28;20984;-83
2021/10/30 09:36:31;;;;;;;14.23;12.47;;;12.30;94.60;;;12.26;81.41;97158.75;5062593;28;20659;-83
2021/10/30 09:39:05;;;;;;;15.93;13.00;;;12.40;94.70;;;12.19;79.75;97148.97;5075835;28;21196;-83
2021/10/30 09:41:36;;;;;;;17.53;13.50;;;12.30;93.80;;;12.21;81.51;97152.28;5059622;28;20628;-82
2021/10/30 09:44:10;;;;;;;16.53;13.13;;;12.30;94.30;;;12.28;83.27;97159.44;5065641;28;20682;-82
2021/10/30 09:46:55;;;;;;;16.03;13.37;;;12.40;95.00;;;12.33;81.91;97149.41;5047815;28;20636;-82
2021/10/30 09:49:33;;;;;;;15.30;12.50;;;12.50;95.40;;;12.38;82.98;97139.34;5067637;28;20642;-82
2021/10/30 09:52:15;;;;;;;16.23;12.93;;;12.50;95.20;;;12.41;82.96;97139.88;5059907;28;20640;-82
2021/10/30 09:54:45;;;;;;;16.43;13.73;;;12.60;95.20;;;12.43;82.31;97143.22;5062413;28;20732;-84
2021/10/30 09:57:17;;;;;;;15.93;12.80;;;12.60;95.20;;;12.44;82.00;97151.88;5063817;28;20664;-84
2021/10/30 09:59:48;;;;;;;17.60;12.73;;;12.60;95.00;;;12.44;81.97;97154.47;5078292;28;20699;-82
2021/10/30 10:02:18;;;;;;;15.50;12.83;;;12.60;94.80;;;12.42;81.42;97167.69;5048125;28;20731;-82
2021/10/30 10:04:48;;;;;;;16.20;12.80;;;12.60;94.80;;;12.42;82.26;97161.66;5067712;28;20624;-82
2021/10/30 10:07:19;;;;;;;15.60;12.60;;;12.70;94.80;;;12.43;83.47;97174.59;5061393;28;20667;-83
2021/10/30 10:09:51;;;;;;;15.43;13.50;;;12.60;94.80;;;12.43;81.77;97178.97;5063604;28;20742;-83
2021/10/30 10:12:20;;;;;;;16.80;12.90;;;12.60;94.50;;;12.42;81.15;97175.53;5064421;28;20716;-83
2021/10/30 10:14:51;;;;;;;17.60;13.97;;;12.60;94.20;;;12.43;82.41;97171.13;5064377;28;20636;-83
2021/10/30 10:17:20;;;;;;;15.90;12.67;;;12.70;94.30;;;12.44;81.44;97167.56;5061948;28;20775;-83
2021/10/30 10:19:50;;;;;;;15.73;13.30;;;12.60;94.20;;;12.42;81.18;97172.94;5062792;28;20655;-83
2021/10/30 10:22:18;;;;;;;17.40;14.10;;;12.70;94.30;;;12.43;80.98;97174.59;5065375;28;20723;-83
2021/10/30 10:24:47;;;;;;;18.23;13.70;;;12.60;94.10;;;12.42;81.22;97172.13;5063805;28;20624;-82
2021/10/30 10:27:16;;;;;;;16.40;13.83;;;12.70;94.30;;;12.42;81.38;97178.16;5062525;28;21180;-83
2021/10/30 10:29:54;;;;;;;17.57;13.97;;;12.70;94.20;;;12.44;80.51;97175.41;5063210;28;20747;-83